Layton, New Jersey
Current Conditions -  °F | °C
As of 10:53 AM on Friday 28 Nov 2014 (Local Time) from KFWN Reporting Station
Few Clouds Few Clouds  
Wind Chill: 25°   Ceiling: Unl
Heat Index: 32°   Visibility: 10mi
Dew Point: 21°   Wind: 8mph
Humidity: 64%   Direction: 290°WNW
Pressure: 30.17"   Gusts: NA
Location:  41.16°N, 74.82°W
Report Text: KFWN 281553Z AUTO 29007KT 250V330 10SM FEW030 00/M06 A3017 RMK AO2 SLP220 T00001061
Loading
Personal Weather Stations






























Interactive Weather Map New forecast layout! Learn more

10-Day Weather Forecast

Advertisements
Track Severe Weather on mobile